Terminal Aerodrome Forecast
Issued by NWS Springfield, MO

Home | Current Version | Previous Version | Text Only | Print | Product List | Glossary On
Versions: 1 2 3 4 5 6 7 8 9 10 11 12 13 14 15 16 17 18 19 20 21 22 23 24 25
000
FTUS43 KSGF 180200 AAA
TAFSGF
TAF AMD
KSGF 180259Z 1803/1824 11005KT 1 1/2SM -SN BR OVC035
     FM180330 13008KT 3SM -SN BR OVC020
     FM180800 13008KT 3SM -RASN BR OVC007
     FM181300 15006KT 1SM BR OVC003
     FM181900 VRB05KT 4SM BR OVC007=

USA.gov is the U.S. government's official web portal to all federal, state and local government web resources and services.